Forside
METAR-TAF:

METAR-TAF

Lufthavne :

Niamey, Niger

Breddekreds: 13-29N, længdekreds: 002-10E, højde: 223 m

Aktuelle vejr

Denne rapport blev lavet for 18 minutter siden, kl. 19:00 UTC
Vind 8 kt fra syd
Temperatur 35°C
Fugtighed 32%
Tryk 1010 hPa
Sigt: 6000 m
Nogle få skyer i en højde af 3300 ft

METAR: DRRN 221900Z 19008KT 6000 FEW033 35/16 Q1010 NOSIG

Tid: 20:18 (19:18 UTC)

Vejrudsigter

Denne rapport blev lavet for 2 timer og 18 minutter siden, kl. 17:00 UTC
Foreløbig gælder fra 22 på 18 UTC til 23 på 24 UTC
Vind 10 kt fra sydsydvest
Sigt: 8000 m
Nogle få skyer i en højde af 3000 ft
Sandsynlighed 30% :
Midlertidig
fra 22 på 21 UTC til 23 på 02 UTC
Vind 25 kt fra østnordøst med vindstød på up til 35 kt
Sigt: 2000 m
Spredte skyer i en højde af 3000 ft
Nogle få skyer i en højde af 4000 ft, Cumulonimbus.
blæsende støv, tordenbyger, regn

TAF: DRRN 221700Z 2218/2324 20010KT 8000 FEW030 PROB30 TEMPO 2221/2302 06025G35KT 2000 BLDU TSRA SCT030 FEW040CB

Vejrobservationer og prognoser fra mere end 4000 lufthavne (METAR og TAF).

De gule og røde prikker repræsenterer de meteorologiske stationer.

Flyt musen over at se navnet på stationen.

Så klik over at se vejr observationer og prognoser.

At skifte det kort: Klik på de grønne knapper med et sort kors for at zoome ind; på den grønne knap med en bindestreg for at zoome ud; eller på de grønne pile for tilstødende kort.


METAR-TAF: